Time;durP1;ratioP1;P1;durP2;ratioP2;P2;SDS_P1;SDS_P2;PMS_P1;PMS_P2;Temp;Humidity;BMP_temperature;BMP_pressure;BME280_temperature;BME280_humidity;BME280_pressure;Samples;Min_cycle;Max_cycle;Signal;HPM_P1;HPM_P2
2022/10/08 00:01:03;;;;;;;0.50;0.50;;;12.70;99.90;;;;;;5000199;28;20036;-84
2022/10/08 00:03:32;;;;;;;0.60;0.60;;;12.70;99.90;;;;;;4984489;28;20059;-81
2022/10/08 00:06:03;;;;;;;0.50;0.50;;;12.70;99.90;;;;;;4979127;28;20551;-80
2022/10/08 00:08:36;;;;;;;;;;;12.80;99.90;;;;;;4968888;28;20109;-82
2022/10/08 00:11:07;;;;;;;0.50;0.50;;;12.90;99.90;;;;;;4990348;28;19924;-80
2022/10/08 00:13:41;;;;;;;0.50;0.50;;;13.00;99.90;;;;;;4976881;28;20044;-81
2022/10/08 00:16:14;;;;;;;0.50;0.50;;;13.00;99.90;;;;;;4980981;28;20546;-80
2022/10/08 00:18:42;;;;;;;0.60;0.60;;;13.00;99.90;;;;;;4969503;28;20055;-81
2022/10/08 00:21:15;;;;;;;0.50;0.50;;;13.00;99.90;;;;;;4983028;28;20150;-81
2022/10/08 00:23:42;;;;;;;0.50;0.50;;;13.10;99.90;;;;;;4977407;28;20431;-80
2022/10/08 00:26:10;;;;;;;0.50;0.50;;;13.10;99.90;;;;;;4969314;28;20040;-81
2022/10/08 00:28:37;;;;;;;0.50;0.50;;;13.00;99.90;;;;;;4989833;28;20055;-80
2022/10/08 00:31:16;;;;;;;0.60;0.60;;;13.00;99.90;;;;;;4991321;28;20058;-85
2022/10/08 00:33:42;;;;;;;0.50;0.50;;;12.90;99.90;;;;;;4990972;28;20925;-82
2022/10/08 00:36:12;;;;;;;0.50;0.50;;;12.80;99.90;;;;;;4973554;28;20228;-83
2022/10/08 00:38:43;;;;;;;0.50;0.50;;;12.60;99.90;;;;;;4977121;28;20120;-86
2022/10/08 00:41:23;;;;;;;0.50;0.50;;;12.60;99.90;;;;;;4982213;28;20048;-86
2022/10/08 00:48:24;;;;;;;;;;;12.40;99.90;;;;;;4969163;28;20120;-87
2022/10/08 00:51:02;;;;;;;0.50;0.50;;;12.40;99.90;;;;;;5004372;28;20388;-87
2022/10/08 00:53:45;;;;;;;0.50;0.50;;;12.40;99.90;;;;;;4996061;28;20343;-87
2022/10/08 00:56:30;;;;;;;0.50;0.50;;;12.40;99.90;;;;;;4991544;28;20525;-86
2022/10/08 00:59:01;;;;;;;0.60;0.60;;;12.30;99.90;;;;;;4962797;28;20052;-86
2022/10/08 01:01:42;;;;;;;0.50;0.50;;;12.30;99.90;;;;;;4977340;28;20361;-87
2022/10/08 01:04:09;;;;;;;0.50;0.50;;;12.40;99.90;;;;;;4999030;28;20414;-86
2022/10/08 01:07:06;;;;;;;0.50;0.50;;;12.40;99.90;;;;;;4998403;28;20463;-88
2022/10/08 01:09:45;;;;;;;0.50;0.50;;;12.40;99.90;;;;;;4976905;28;20547;-86
2022/10/08 01:12:52;;;;;;;0.50;0.50;;;12.40;99.90;;;;;;4980571;28;20610;-86
2022/10/08 01:15:52;;;;;;;0.50;0.50;;;12.40;99.90;;;;;;4984818;28;20040;-86
2022/10/08 01:19:03;;;;;;;0.50;0.50;;;12.40;99.90;;;;;;4977471;28;20056;-88
2022/10/08 01:22:35;;;;;;;;;;;;;;;;;;;;;
2022/10/08 01:25:44;;;;;;;;;;;;;;;;;;;;;
2022/10/08 01:28:36;;;;;;;0.50;0.50;;;12.50;99.90;;;;;;5007446;28;20482;-87
2022/10/08 01:31:18;;;;;;;0.50;0.50;;;12.50;99.90;;;;;;4983947;28;20044;-91
2022/10/08 01:37:40;;;;;;;0.50;0.50;;;12.40;99.90;;;;;;4944301;28;20077;-86
2022/10/08 01:56:20;;;;;;;0.50;0.50;;;12.30;99.90;;;;;;4708092;29;20365;-87
2022/10/08 02:03:12;;;;;;;0.50;0.50;;;12.20;99.90;;;;;;4686918;29;20162;-87
2022/10/08 02:05:49;;;;;;;0.50;0.50;;;12.20;99.90;;;;;;4710305;29;20877;-88
2022/10/08 02:08:48;;;;;;;0.50;0.50;;;12.20;99.90;;;;;;4803980;29;20060;-88
2022/10/08 02:11:27;;;;;;;0.50;0.50;;;12.20;99.90;;;;;;4812557;29;20061;-86
2022/10/08 02:14:13;;;;;;;0.50;0.50;;;12.20;99.90;;;;;;4805686;29;20100;-85
2022/10/08 02:17:32;;;;;;;0.50;0.50;;;12.20;99.90;;;;;;4885215;28;20044;-86
2022/10/08 02:20:42;;;;;;;0.50;0.50;;;12.20;99.90;;;;;;4901178;28;21310;-88
2022/10/08 02:26:54;;;;;;;0.50;0.50;;;12.20;99.90;;;;;;4946336;28;21026;-87
2022/10/08 02:29:40;;;;;;;0.50;0.50;;;12.20;99.90;;;;;;4948041;28;20044;-85
2022/10/08 02:32:52;;;;;;;0.50;0.50;;;12.30;99.90;;;;;;4944266;28;20554;-87
2022/10/08 02:39:05;;;;;;;0.50;0.50;;;12.20;99.90;;;;;;4907394;28;20063;-85
2022/10/08 02:41:51;;;;;;;0.50;0.50;;;12.30;99.90;;;;;;4945078;28;20045;-87
2022/10/08 02:44:57;;;;;;;0.50;0.50;;;12.30;99.90;;;;;;4946081;28;20445;-85
2022/10/08 02:47:49;;;;;;;0.50;0.50;;;12.30;99.90;;;;;;4974673;28;20053;-87
2022/10/08 02:53:35;;;;;;;0.50;0.50;;;12.30;99.90;;;;;;4972133;28;20109;-85
2022/10/08 02:56:30;;;;;;;0.50;0.50;;;12.30;99.90;;;;;;4998155;28;20051;-84
2022/10/08 03:03:41;;;;;;;0.50;0.50;;;12.20;99.90;;;;;;4995522;28;20117;-86
2022/10/08 03:06:20;;;;;;;0.50;0.50;;;12.20;99.90;;;;;;4923620;28;20088;-87
2022/10/08 03:08:58;;;;;;;0.50;0.50;;;12.30;99.90;;;;;;4918657;28;21146;-85
2022/10/08 03:11:37;;;;;;;0.50;0.50;;;12.20;99.90;;;;;;4987339;28;20040;-85
2022/10/08 03:14:13;;;;;;;0.50;0.50;;;12.30;99.90;;;;;;4998641;28;22328;-86
2022/10/08 03:16:43;;;;;;;0.50;0.50;;;12.30;99.90;;;;;;4989738;28;20130;-84
2022/10/08 03:19:12;;;;;;;0.50;0.50;;;12.30;99.90;;;;;;4975463;28;20520;-85
2022/10/08 03:21:44;;;;;;;0.50;0.50;;;12.20;99.90;;;;;;4996154;28;20047;-85
2022/10/08 03:24:16;;;;;;;0.50;0.50;;;12.20;99.90;;;;;;4982257;28;20128;-86
2022/10/08 03:26:53;;;;;;;0.50;0.50;;;12.20;99.90;;;;;;5000280;28;20044;-86
2022/10/08 03:29:39;;;;;;;0.50;0.50;;;12.20;99.90;;;;;;4976779;28;20048;-85
2022/10/08 03:32:23;;;;;;;0.60;0.60;;;12.20;99.90;;;;;;4980312;28;20246;-86
2022/10/08 03:34:49;;;;;;;0.50;0.50;;;12.20;99.90;;;;;;4982568;28;20135;-84
2022/10/08 03:38:01;;;;;;;0.50;0.50;;;12.20;99.90;;;;;;4969278;28;20162;-86
2022/10/08 03:40:27;;;;;;;0.50;0.50;;;12.10;99.90;;;;;;4979342;28;20063;-83
2022/10/08 03:43:04;;;;;;;0.50;0.50;;;12.00;99.90;;;;;;4979680;28;20163;-86
2022/10/08 03:45:33;;;;;;;0.50;0.50;;;12.00;99.90;;;;;;4962131;28;20219;-85
2022/10/08 03:48:06;;;;;;;0.50;0.50;;;11.90;99.90;;;;;;4997108;28;20547;-87
2022/10/08 03:50:40;;;;;;;0.50;0.50;;;11.90;99.90;;;;;;4983870;28;20051;-85
2022/10/08 03:53:17;;;;;;;0.50;0.50;;;11.90;99.90;;;;;;4983367;28;20544;-85
2022/10/08 03:56:01;;;;;;;0.50;0.50;;;11.90;99.90;;;;;;4976647;28;20455;-85
2022/10/08 03:58:27;;;;;;;0.50;0.50;;;12.00;99.90;;;;;;4978205;28;20051;-85
2022/10/08 04:01:04;;;;;;;0.50;0.50;;;11.90;99.90;;;;;;4975596;28;20040;-84
2022/10/08 04:03:33;;;;;;;0.50;0.50;;;11.90;99.90;;;;;;4992702;28;20044;-85
2022/10/08 04:06:04;;;;;;;0.50;0.50;;;11.80;99.90;;;;;;4989498;28;20447;-84
2022/10/08 04:08:33;;;;;;;0.50;0.50;;;11.90;99.90;;;;;;4986620;28;20138;-84
2022/10/08 04:11:10;;;;;;;0.50;0.50;;;11.90;99.90;;;;;;4970756;28;20040;-84
2022/10/08 04:13:51;;;;;;;0.50;0.50;;;11.90;99.90;;;;;;4988284;28;20044;-84
2022/10/08 04:16:18;;;;;;;0.50;0.50;;;11.90;99.90;;;;;;4999025;28;21088;-85
2022/10/08 04:18:47;;;;;;;0.50;0.50;;;11.90;99.90;;;;;;5000064;28;20072;-84
2022/10/08 04:21:16;;;;;;;0.50;0.50;;;11.80;99.90;;;;;;4983510;28;20492;-84
2022/10/08 04:23:42;;;;;;;0.50;0.50;;;11.80;99.90;;;;;;5003152;28;20151;-84
2022/10/08 04:26:20;;;;;;;0.50;0.50;;;11.90;99.90;;;;;;4984911;28;20054;-87
2022/10/08 04:28:48;;;;;;;0.50;0.50;;;12.00;99.90;;;;;;5002428;28;20044;-85
2022/10/08 04:31:17;;;;;;;0.50;0.50;;;11.90;99.90;;;;;;4986411;28;20133;-83
2022/10/08 04:33:45;;;;;;;0.50;0.50;;;11.90;99.90;;;;;;4972555;28;20351;-84
2022/10/08 04:36:13;;;;;;;0.50;0.50;;;11.90;99.90;;;;;;4990823;28;20043;-85
2022/10/08 04:38:51;;;;;;;0.50;0.50;;;11.80;99.90;;;;;;4971509;28;20043;-84
2022/10/08 04:41:24;;;;;;;0.50;0.50;;;11.90;99.90;;;;;;4974941;28;20530;-85
2022/10/08 04:43:51;;;;;;;0.50;0.50;;;11.90;99.90;;;;;;4971394;28;20043;-83
2022/10/08 04:46:19;;;;;;;0.50;0.50;;;11.90;99.90;;;;;;4994196;28;20223;-84
2022/10/08 04:49:04;;;;;;;0.50;0.50;;;11.80;99.90;;;;;;4977789;28;20039;-84
2022/10/08 04:51:31;;;;;;;0.50;0.50;;;11.90;99.90;;;;;;4994250;28;20062;-85
2022/10/08 04:54:04;;;;;;;0.50;0.50;;;11.90;99.90;;;;;;4973498;28;20670;-84
2022/10/08 04:56:35;;;;;;;0.50;0.50;;;11.90;99.90;;;;;;4982524;28;20424;-83
2022/10/08 04:59:03;;;;;;;0.50;0.50;;;11.90;99.90;;;;;;4972220;28;20044;-84
2022/10/08 05:01:30;;;;;;;0.50;0.50;;;11.90;99.90;;;;;;4980267;28;20047;-84
2022/10/08 05:04:00;;;;;;;0.50;0.50;;;11.90;99.90;;;;;;4997841;28;20508;-85
2022/10/08 05:06:32;;;;;;;0.50;0.50;;;11.90;99.90;;;;;;4983078;28;20075;-85
2022/10/08 05:09:04;;;;;;;0.50;0.50;;;11.90;99.90;;;;;;4994373;28;20059;-84
2022/10/08 05:11:33;;;;;;;0.50;0.50;;;11.90;99.90;;;;;;4957801;28;20052;-84
2022/10/08 05:13:59;;;;;;;0.50;0.50;;;12.00;99.90;;;;;;4973555;28;20044;-85
2022/10/08 05:16:25;;;;;;;0.50;0.50;;;12.00;99.90;;;;;;4982768;28;20056;-83
2022/10/08 05:18:53;;;;;;;0.50;0.50;;;12.00;99.90;;;;;;4955885;28;20131;-85
2022/10/08 05:21:25;;;;;;;0.50;0.50;;;12.10;99.90;;;;;;4990526;28;20044;-84
2022/10/08 05:23:59;;;;;;;0.50;0.50;;;12.10;99.90;;;;;;4986475;28;20048;-84
2022/10/08 05:26:33;;;;;;;0.50;0.50;;;12.00;99.90;;;;;;4995208;28;20056;-85
2022/10/08 05:29:00;;;;;;;0.60;0.60;;;12.00;99.90;;;;;;4981030;28;20053;-83
2022/10/08 05:31:28;;;;;;;0.50;0.50;;;11.90;99.90;;;;;;4977783;28;20984;-84
2022/10/08 05:33:57;;;;;;;0.50;0.50;;;12.00;99.90;;;;;;4980497;28;20801;-84
2022/10/08 05:36:29;;;;;;;0.50;0.50;;;11.90;99.90;;;;;;4971398;28;20059;-84
2022/10/08 05:38:55;;;;;;;0.50;0.50;;;11.80;99.90;;;;;;4967399;28;20163;-84
2022/10/08 05:41:30;;;;;;;0.50;0.50;;;11.80;99.90;;;;;;4975809;28;20082;-84
2022/10/08 05:44:06;;;;;;;0.50;0.50;;;11.80;99.90;;;;;;4991843;28;20036;-86
2022/10/08 05:46:40;;;;;;;0.50;0.50;;;11.80;99.90;;;;;;4988977;28;20506;-85
2022/10/08 05:49:19;;;;;;;0.50;0.50;;;11.80;99.90;;;;;;4969974;28;20256;-85
2022/10/08 05:51:48;;;;;;;0.50;0.50;;;11.70;99.90;;;;;;4969266;28;20082;-83
2022/10/08 05:54:17;;;;;;;0.50;0.50;;;11.80;99.90;;;;;;4985452;28;20346;-84
2022/10/08 05:56:47;;;;;;;0.50;0.50;;;11.70;99.90;;;;;;4990999;28;20048;-84
2022/10/08 05:59:21;;;;;;;0.50;0.50;;;11.60;99.90;;;;;;4988318;28;20045;-83
2022/10/08 06:01:48;;;;;;;0.50;0.50;;;11.60;99.90;;;;;;4962943;28;20422;-84
2022/10/08 06:04:14;;;;;;;0.50;0.50;;;11.50;99.90;;;;;;4979240;28;20054;-84
2022/10/08 06:06:42;;;;;;;0.50;0.50;;;11.50;99.90;;;;;;4964451;28;20575;-83
2022/10/08 06:09:15;;;;;;;0.50;0.50;;;11.50;99.90;;;;;;4980164;28;20572;-84
2022/10/08 06:11:44;;;;;;;0.50;0.50;;;11.40;99.90;;;;;;4961362;28;20040;-84
2022/10/08 06:14:13;;;;;;;0.50;0.50;;;11.30;99.90;;;;;;4966069;28;20047;-82
2022/10/08 06:16:39;;;;;;;0.50;0.50;;;11.40;99.90;;;;;;4986312;28;20052;-82
2022/10/08 06:19:06;;;;;;;0.50;0.50;;;11.40;99.90;;;;;;5001730;28;20044;-81
2022/10/08 06:21:34;;;;;;;0.50;0.50;;;11.40;99.90;;;;;;4979428;28;20050;-82
2022/10/08 06:24:05;;;;;;;0.50;0.50;;;11.40;99.90;;;;;;4987233;28;20082;-84
2022/10/08 06:26:36;;;;;;;0.50;0.50;;;11.40;99.90;;;;;;4964029;28;20055;-83
2022/10/08 06:29:18;;;;;;;0.50;0.50;;;11.50;99.90;;;;;;4980429;28;20052;-85
2022/10/08 06:31:52;;;;;;;0.50;0.50;;;11.60;99.90;;;;;;4999791;28;20809;-88
2022/10/08 06:34:18;;;;;;;0.50;0.50;;;11.60;99.90;;;;;;4957632;28;20378;-84
2022/10/08 06:36:47;;;;;;;0.50;0.50;;;11.60;99.90;;;;;;4975907;28;20613;-86
2022/10/08 06:39:15;;;;;;;0.50;0.50;;;11.70;99.90;;;;;;4988556;28;20498;-83
2022/10/08 06:41:41;;;;;;;0.60;0.60;;;11.80;99.90;;;;;;4987581;28;20058;-84
2022/10/08 06:44:11;;;;;;;0.50;0.50;;;11.90;99.90;;;;;;4986173;28;20044;-85
2022/10/08 06:46:40;;;;;;;0.50;0.50;;;12.00;99.90;;;;;;4969142;28;20052;-85
2022/10/08 06:49:06;;;;;;;0.50;0.50;;;12.10;99.90;;;;;;4974601;28;20052;-84
2022/10/08 06:51:33;;;;;;;0.50;0.50;;;12.20;99.90;;;;;;4954601;28;20515;-83
2022/10/08 06:53:59;;;;;;;0.50;0.50;;;12.20;99.90;;;;;;4970932;28;20047;-83
2022/10/08 06:56:25;;;;;;;0.50;0.50;;;12.20;99.90;;;;;;5007984;28;20052;-82
2022/10/08 06:58:51;;;;;;;0.50;0.50;;;12.30;99.90;;;;;;5006177;28;20116;-82
2022/10/08 07:01:23;;;;;;;0.50;0.50;;;12.60;99.90;;;;;;4966529;28;20051;-85
2022/10/08 07:03:59;;;;;;;0.50;0.50;;;12.80;99.90;;;;;;4989458;28;20537;-85
2022/10/08 07:06:28;;;;;;;0.50;0.50;;;12.70;99.90;;;;;;4964343;28;20059;-86
2022/10/08 07:08:59;;;;;;;0.50;0.50;;;12.60;99.90;;;;;;5002273;28;20099;-83
2022/10/08 07:11:26;;;;;;;0.50;0.50;;;12.40;99.90;;;;;;4983331;28;20048;-84
2022/10/08 07:13:54;;;;;;;0.50;0.50;;;12.50;99.90;;;;;;4989635;28;20047;-81
2022/10/08 07:16:25;;;;;;;0.50;0.50;;;12.70;99.90;;;;;;4987871;28;20060;-84
2022/10/08 07:18:57;;;;;;;0.50;0.50;;;12.90;99.90;;;;;;4981450;28;20211;-83
2022/10/08 07:21:23;;;;;;;0.50;0.50;;;13.10;99.90;;;;;;4986792;28;20054;-84
2022/10/08 07:23:50;;;;;;;0.50;0.50;;;13.10;99.90;;;;;;4986450;28;21080;-82
2022/10/08 07:26:21;;;;;;;0.50;0.50;;;13.40;99.90;;;;;;4979776;28;20419;-84
2022/10/08 07:28:53;;;;;;;0.50;0.50;;;13.60;99.90;;;;;;4985562;28;20477;-86
2022/10/08 07:31:22;;;;;;;0.50;0.50;;;13.40;99.90;;;;;;4988099;28;20461;-84
2022/10/08 07:33:52;;;;;;;0.50;0.50;;;13.30;99.90;;;;;;4989552;28;20048;-85
2022/10/08 07:36:20;;;;;;;0.50;0.50;;;13.10;99.90;;;;;;5011776;28;20060;-83
2022/10/08 07:38:47;;;;;;;0.50;0.50;;;13.10;99.90;;;;;;4986639;28;20040;-83
2022/10/08 07:41:13;;;;;;;0.50;0.50;;;13.10;99.90;;;;;;4987583;28;20483;-84
2022/10/08 07:43:40;;;;;;;0.50;0.50;;;13.10;99.90;;;;;;4981344;28;20048;-82
2022/10/08 07:46:07;;;;;;;0.50;0.50;;;13.10;99.90;;;;;;4983968;28;20844;-82
2022/10/08 07:48:34;;;;;;;0.50;0.50;;;13.10;99.90;;;;;;4968686;28;20054;-83
2022/10/08 07:51:15;;;;;;;0.50;0.50;;;13.20;99.90;;;;;;4983433;28;20115;-85
2022/10/08 07:53:42;;;;;;;0.50;0.50;;;13.50;99.90;;;;;;4995014;28;20647;-85
2022/10/08 07:56:15;;;;;;;0.50;0.50;;;13.60;99.90;;;;;;4990085;28;20048;-86
2022/10/08 07:58:41;;;;;;;0.50;0.50;;;13.80;99.90;;;;;;4992644;28;20052;-84
2022/10/08 08:01:27;;;;;;;0.50;0.50;;;13.90;99.90;;;;;;4975855;28;20062;-85
2022/10/08 08:04:05;;;;;;;0.50;0.50;;;14.00;99.90;;;;;;4985160;28;20047;-83
2022/10/08 08:06:32;;;;;;;0.50;0.50;;;14.10;99.90;;;;;;4990492;28;20051;-82
2022/10/08 08:09:00;;;;;;;0.50;0.50;;;14.30;99.90;;;;;;4967002;28;20079;-84
2022/10/08 08:11:34;;;;;;;0.50;0.50;;;14.40;99.90;;;;;;4965613;28;20109;-87
2022/10/08 08:14:00;;;;;;;0.50;0.50;;;14.40;99.90;;;;;;4997633;28;20036;-84
2022/10/08 08:16:27;;;;;;;0.50;0.50;;;14.50;99.90;;;;;;4952146;28;20356;-83
2022/10/08 08:19:04;;;;;;;0.50;0.50;;;14.60;99.90;;;;;;4951208;28;20048;-85
2022/10/08 08:21:37;;;;;;;0.50;0.50;;;14.80;99.90;;;;;;4979091;28;20044;-87
2022/10/08 08:24:44;;;;;;;0.50;0.50;;;14.70;99.90;;;;;;5005376;28;20048;-87
2022/10/08 08:27:10;;;;;;;0.50;0.50;;;14.90;99.90;;;;;;4969484;28;20079;-86
2022/10/08 08:29:41;;;;;;;0.50;0.50;;;15.00;99.90;;;;;;4967497;28;20423;-86
2022/10/08 08:32:16;;;;;;;0.50;0.50;;;15.00;99.90;;;;;;4992318;28;20417;-88
2022/10/08 08:35:00;;;;;;;0.50;0.50;;;15.10;99.90;;;;;;4972026;28;20408;-85
2022/10/08 08:37:26;;;;;;;0.50;0.50;;;15.10;99.90;;;;;;4988532;28;20056;-85
2022/10/08 08:39:52;;;;;;;0.50;0.50;;;15.20;99.90;;;;;;4968031;28;20043;-84
2022/10/08 08:42:30;;;;;;;0.50;0.50;;;15.30;99.90;;;;;;4986421;28;20106;-86
2022/10/08 08:45:08;;;;;;;0.45;0.45;;;15.50;99.90;;;;;;4992528;28;20461;-88
2022/10/08 08:47:47;;;;;;;0.50;0.50;;;15.40;99.90;;;;;;4988522;28;20469;-85
2022/10/08 08:50:35;;;;;;;0.50;0.50;;;15.50;99.90;;;;;;5000515;28;20833;-83
2022/10/08 08:53:07;;;;;;;0.50;0.50;;;15.60;99.90;;;;;;4967331;28;20044;-83
2022/10/08 08:55:39;;;;;;;0.50;0.50;;;15.50;99.90;;;;;;4960742;28;20366;-83
2022/10/08 08:58:46;;;;;;;0.50;0.50;;;15.60;99.90;;;;;;5002090;28;21102;-81
2022/10/08 09:01:21;;;;;;;0.50;0.50;;;15.70;99.90;;;;;;4896039;28;20047;-84
2022/10/08 09:03:50;;;;;;;0.50;0.50;;;15.90;99.90;;;;;;4980980;28;20476;-85
2022/10/08 09:06:26;;;;;;;0.50;0.50;;;16.00;99.90;;;;;;4965826;28;20139;-81
2022/10/08 09:08:58;;;;;;;0.40;0.40;;;16.10;99.90;;;;;;4986394;28;20812;-82
2022/10/08 09:11:26;;;;;;;0.43;0.43;;;16.20;99.90;;;;;;4956706;28;20728;-80
2022/10/08 09:13:51;;;;;;;0.50;0.50;;;16.20;99.90;;;;;;4976302;28;20137;-84
2022/10/08 09:16:17;;;;;;;0.50;0.50;;;16.30;99.90;;;;;;4984405;28;21333;-82
2022/10/08 09:18:46;;;;;;;0.50;0.50;;;16.30;99.90;;;;;;4978975;28;20788;-82
2022/10/08 09:21:12;;;;;;;0.50;0.50;;;16.40;99.90;;;;;;4978971;28;20040;-80
2022/10/08 09:23:38;;;;;;;0.40;0.40;;;16.40;99.90;;;;;;4977373;28;20095;-83
2022/10/08 09:26:18;;;;;;;0.47;0.47;;;16.30;99.90;;;;;;4962057;28;20517;-83
2022/10/08 09:29:04;;;;;;;0.40;0.40;;;16.10;99.90;;;;;;4962052;28;20123;-80
2022/10/08 09:31:43;;;;;;;0.47;0.47;;;16.20;99.90;;;;;;4994558;28;20100;-85
2022/10/08 09:34:09;;;;;;;0.50;0.50;;;16.20;99.90;;;;;;4979812;28;20036;-82
2022/10/08 09:37:08;;;;;;;0.40;0.40;;;16.00;99.90;;;;;;4976266;28;20218;-86
2022/10/08 09:39:37;;;;;;;0.50;0.50;;;16.10;99.90;;;;;;4953715;28;20241;-82
2022/10/08 09:42:16;;;;;;;0.50;0.50;;;15.60;99.90;;;;;;4977917;28;20590;-79
2022/10/08 09:44:59;;;;;;;0.50;0.50;;;15.70;99.90;;;;;;4978641;28;20044;-87
2022/10/08 09:47:32;;;;;;;0.40;0.40;;;16.00;99.90;;;;;;4999097;28;20626;-87
2022/10/08 09:50:17;;;;;;;0.43;0.43;;;15.80;99.90;;;;;;4985198;28;20271;-83
2022/10/08 09:52:46;;;;;;;0.40;0.40;;;15.60;99.90;;;;;;4977903;28;20052;-81
2022/10/08 09:55:20;;;;;;;0.40;0.40;;;15.90;99.90;;;;;;4987959;28;20755;-82
2022/10/08 09:57:48;;;;;;;0.50;0.50;;;16.00;99.90;;;;;;4969250;28;20040;-83
2022/10/08 10:00:30;;;;;;;0.40;0.40;;;16.30;99.90;;;;;;4988993;28;20052;-83
2022/10/08 10:02:57;;;;;;;0.40;0.40;;;16.30;99.90;;;;;;4976729;28;20271;-81
2022/10/08 10:05:29;;;;;;;0.40;0.40;;;16.50;99.90;;;;;;4985527;28;20102;-83
2022/10/08 10:07:56;;;;;;;0.40;0.40;;;16.60;99.90;;;;;;4977265;28;20552;-83
2022/10/08 10:10:30;;;;;;;0.40;0.40;;;16.70;99.90;;;;;;4938367;28;20051;-86
2022/10/08 10:13:12;;;;;;;0.50;0.50;;;17.20;99.90;;;;;;4980822;28;20547;-82
2022/10/08 10:15:51;;;;;;;0.40;0.40;;;17.30;99.90;;;;;;4982352;28;20109;-83
2022/10/08 10:18:32;;;;;;;0.40;0.40;;;17.20;99.90;;;;;;4974847;28;20105;-85
2022/10/08 10:21:06;;;;;;;0.40;0.40;;;17.00;99.90;;;;;;4986850;28;20044;-82
2022/10/08 10:23:43;;;;;;;0.40;0.40;;;16.70;99.90;;;;;;5004249;28;20083;-84
2022/10/08 10:26:23;;;;;;;0.40;0.40;;;17.00;99.90;;;;;;4978866;28;20047;-81
2022/10/08 10:28:58;;;;;;;0.43;0.43;;;17.30;99.90;;;;;;4992549;28;20635;-87
2022/10/08 10:31:32;;;;;;;0.40;0.40;;;17.30;99.90;;;;;;4984445;28;20054;-83
2022/10/08 10:34:16;;;;;;;0.50;0.50;;;17.30;99.90;;;;;;4975340;28;20364;-85
2022/10/08 10:36:48;;;;;;;0.50;0.50;;;17.40;99.90;;;;;;4977683;28;20825;-83
2022/10/08 10:39:37;;;;;;;0.40;0.40;;;17.30;99.90;;;;;;4983363;28;20066;-86
2022/10/08 10:42:27;;;;;;;0.40;0.40;;;17.30;99.90;;;;;;4984255;28;20048;-83
2022/10/08 10:45:00;;;;;;;0.40;0.40;;;17.50;99.90;;;;;;4987927;28;20540;-84
2022/10/08 10:47:30;;;;;;;0.40;0.40;;;17.50;99.90;;;;;;4980337;28;20151;-82
2022/10/08 10:49:57;;;;;;;0.40;0.40;;;17.70;99.90;;;;;;5010708;28;20665;-87
2022/10/08 10:52:35;;;;;;;0.40;0.40;;;17.90;99.90;;;;;;5012573;28;20740;-86
2022/10/08 10:55:22;;;;;;;0.40;0.40;;;18.00;99.90;;;;;;4978294;28;20056;-81
2022/10/08 10:58:11;;;;;;;0.40;0.40;;;18.00;99.90;;;;;;5039960;28;20052;-82
2022/10/08 11:00:41;;;;;;;0.40;0.40;;;18.00;99.90;;;;;;5069371;28;20662;-84
2022/10/08 11:03:40;;;;;;;0.40;0.40;;;17.90;99.90;;;;;;5049667;28;20111;-86
2022/10/08 11:06:42;;;;;;;0.40;0.40;;;17.60;99.90;;;;;;4945513;28;20053;-84
2022/10/08 11:09:34;;;;;;;0.47;0.47;;;17.90;99.90;;;;;;5035345;28;20056;-80
2022/10/08 11:12:26;;;;;;;0.40;0.40;;;18.10;99.90;;;;;;5042275;28;20058;-83
2022/10/08 11:15:32;;;;;;;0.40;0.40;;;17.60;99.90;;;;;;5043929;28;20102;-86
2022/10/08 11:18:15;;;;;;;0.40;0.40;;;16.90;99.90;;;;;;5035369;28;20387;-84
2022/10/08 11:20:51;;;;;;;0.40;0.40;;;16.40;99.90;;;;;;5040809;28;20804;-81
2022/10/08 11:23:49;;;;;;;0.40;0.40;;;16.20;99.90;;;;;;5044254;28;20059;-83
2022/10/08 11:26:34;;;;;;;0.40;0.40;;;16.10;99.90;;;;;;5049250;28;20496;-82
2022/10/08 11:29:20;;;;;;;0.40;0.40;;;16.80;99.90;;;;;;5044752;28;20051;-82
2022/10/08 11:31:53;;;;;;;0.40;0.40;;;17.40;99.90;;;;;;5042911;28;20192;-81
2022/10/08 11:34:39;;;;;;;0.50;0.50;;;17.90;99.90;;;;;;5023731;28;20248;-80
2022/10/08 11:37:24;;;;;;;0.40;0.40;;;18.10;99.90;;;;;;5045711;28;20400;-83
2022/10/08 11:40:16;;;;;;;0.40;0.40;;;18.10;99.90;;;;;;5030854;28;20054;-78
2022/10/08 11:43:03;;;;;;;0.40;0.40;;;17.40;99.90;;;;;;5062231;28;20120;-79
2022/10/08 11:45:36;;;;;;;0.40;0.40;;;16.90;99.90;;;;;;5047523;28;20130;-78
2022/10/08 11:48:22;;;;;;;;;;;17.10;99.90;;;;;;5044719;28;20060;-78
2022/10/08 11:50:49;;;;;;;0.40;0.40;;;17.40;99.90;;;;;;5037931;28;19935;-79
2022/10/08 11:53:26;;;;;;;0.40;0.40;;;17.20;99.90;;;;;;5046837;28;20606;-77
2022/10/08 11:55:55;;;;;;;0.50;0.50;;;17.10;99.90;;;;;;5029310;28;20071;-77
2022/10/08 11:58:27;;;;;;;0.50;0.50;;;16.50;99.90;;;;;;5043139;28;20594;-77
2022/10/08 12:01:02;;;;;;;0.40;0.40;;;16.40;99.90;;;;;;5017456;28;20744;-80
2022/10/08 12:03:29;;;;;;;0.40;0.40;;;16.10;99.90;;;;;;4972806;28;20376;-78
2022/10/08 12:06:12;;;;;;;0.40;0.40;;;16.50;99.90;;;;;;4984997;28;20059;-80
2022/10/08 12:08:49;;;;;;;0.40;0.40;;;17.10;99.90;;;;;;4981843;28;20055;-80
2022/10/08 12:11:30;;;;;;;0.40;0.40;;;17.30;99.90;;;;;;5009297;28;20467;-79
2022/10/08 12:14:15;;;;;;;0.45;0.45;;;17.90;99.90;;;;;;5003704;28;20048;-81
2022/10/08 12:16:48;;;;;;;0.40;0.40;;;18.00;99.90;;;;;;4992634;28;20052;-80
2022/10/08 12:19:37;;;;;;;0.50;0.50;;;18.30;99.90;;;;;;5012616;28;20778;-79
2022/10/08 12:22:04;;;;;;;0.40;0.40;;;18.70;99.90;;;;;;4963031;28;20059;-79
2022/10/08 12:24:35;;;;;;;0.40;0.40;;;19.00;99.90;;;;;;5032704;28;20491;-80
2022/10/08 12:27:16;;;;;;;0.40;0.40;;;18.90;99.90;;;;;;5017954;28;20072;-80
2022/10/08 12:29:55;;;;;;;0.40;0.40;;;18.50;99.90;;;;;;4987670;28;20048;-80
2022/10/08 12:32:31;;;;;;;0.40;0.40;;;18.40;99.90;;;;;;4970829;28;20370;-79
2022/10/08 12:35:00;;;;;;;0.40;0.40;;;19.00;99.90;;;;;;4999761;28;20101;-79
2022/10/08 12:37:45;;;;;;;0.40;0.40;;;19.00;99.90;;;;;;4990594;28;21041;-80
2022/10/08 12:40:34;;;;;;;0.40;0.40;;;18.90;99.90;;;;;;4997223;28;20904;-79
2022/10/08 12:43:18;;;;;;;0.40;0.40;;;18.80;99.90;;;;;;4994950;28;20052;-79
2022/10/08 12:45:52;;;;;;;;;;;18.90;99.90;;;;;;4990034;28;20812;-79
2022/10/08 12:48:32;;;;;;;0.40;0.40;;;18.90;99.90;;;;;;5010376;28;20310;-80
2022/10/08 12:51:28;;;;;;;0.40;0.40;;;19.10;99.90;;;;;;5011106;28;20067;-79
2022/10/08 12:53:53;;;;;;;0.40;0.40;;;19.50;99.90;;;;;;5030665;28;20535;-78
2022/10/08 12:56:26;;;;;;;0.40;0.40;;;19.70;99.90;;;;;;5035019;28;20073;-80
2022/10/08 12:58:55;;;;;;;0.50;0.50;;;19.70;99.90;;;;;;5007003;28;20050;-81
2022/10/08 13:01:26;;;;;;;0.40;0.40;;;19.40;99.90;;;;;;4994421;28;20314;-87
2022/10/08 13:04:19;;;;;;;0.30;0.30;;;19.50;99.90;;;;;;5013598;28;20048;-81
2022/10/08 13:06:49;;;;;;;0.40;0.40;;;19.20;99.90;;;;;;4987325;28;20080;-83
2022/10/08 13:09:25;;;;;;;0.40;0.40;;;19.10;99.90;;;;;;5000316;28;20058;-83
2022/10/08 13:11:55;;;;;;;0.40;0.40;;;18.90;99.90;;;;;;4995624;28;20125;-82
2022/10/08 13:14:29;;;;;;;0.40;0.40;;;18.70;99.90;;;;;;4982575;28;20052;-85
2022/10/08 13:16:59;;;;;;;0.40;0.40;;;18.40;99.90;;;;;;4970255;28;20079;-79
2022/10/08 13:19:29;;;;;;;0.40;0.40;;;18.50;99.90;;;;;;5009611;28;20032;-81
2022/10/08 13:22:25;;;;;;;0.40;0.40;;;18.70;99.90;;;;;;4992004;28;20047;-83
2022/10/08 13:24:51;;;;;;;0.40;0.40;;;18.70;99.90;;;;;;4979000;28;20403;-84
2022/10/08 13:27:32;;;;;;;0.50;0.50;;;18.40;99.90;;;;;;4995302;28;20087;-80
2022/10/08 13:30:25;;;;;;;0.40;0.40;;;18.30;99.90;;;;;;4979541;28;20058;-83
2022/10/08 13:33:05;;;;;;;0.40;0.40;;;18.40;99.90;;;;;;4993341;28;20083;-80
2022/10/08 13:35:32;;;;;;;0.40;0.40;;;18.50;99.90;;;;;;4977585;28;20189;-80
2022/10/08 13:37:59;;;;;;;0.40;0.40;;;18.60;99.90;;;;;;4991998;28;20048;-83
2022/10/08 13:40:25;;;;;;;0.40;0.40;;;18.80;99.90;;;;;;4998866;28;20044;-80
2022/10/08 13:42:57;;;;;;;0.40;0.40;;;18.70;99.90;;;;;;4997245;28;20036;-79
2022/10/08 13:45:26;;;;;;;0.40;0.40;;;18.20;99.90;;;;;;4979308;28;20917;-79
2022/10/08 13:47:53;;;;;;;0.40;0.40;;;18.10;99.90;;;;;;4997956;28;20055;-79
2022/10/08 13:50:21;;;;;;;0.40;0.40;;;17.30;99.90;;;;;;4999306;28;21420;-81
2022/10/08 13:52:52;;;;;;;0.40;0.40;;;17.40;99.90;;;;;;4995748;28;20078;-82
2022/10/08 13:55:27;;;;;;;0.40;0.40;;;17.60;99.90;;;;;;4994721;28;20060;-83
2022/10/08 13:58:05;;;;;;;0.40;0.40;;;17.70;99.90;;;;;;4997848;28;20949;-83
2022/10/08 14:00:34;;;;;;;0.40;0.40;;;17.20;99.90;;;;;;5016299;28;20047;-81
2022/10/08 14:03:00;;;;;;;0.40;0.40;;;17.30;99.90;;;;;;5014579;28;20489;-80
2022/10/08 14:05:31;;;;;;;0.40;0.40;;;17.50;99.90;;;;;;4983485;28;20032;-80
2022/10/08 14:08:01;;;;;;;0.40;0.40;;;17.60;99.90;;;;;;4995752;28;20165;-80
2022/10/08 14:10:27;;;;;;;0.40;0.40;;;17.50;99.90;;;;;;5017263;28;20504;-82
2022/10/08 14:12:55;;;;;;;0.50;0.50;;;17.40;99.90;;;;;;4996922;28;20105;-81
2022/10/08 14:15:27;;;;;;;0.45;0.45;;;17.30;99.90;;;;;;4997101;28;20158;-81
2022/10/08 14:17:53;;;;;;;0.50;0.50;;;17.40;99.90;;;;;;4988692;28;20250;-82